Time;durP1;ratioP1;P1;durP2;ratioP2;P2;SDS_P1;SDS_P2;PMS_P1;PMS_P2;Temp;Humidity;BMP_temperature;BMP_pressure;BME280_temperature;BME280_humidity;BME280_pressure;Samples;Min_cycle;Max_cycle;Signal;HPM_P1;HPM_P2
2022/07/28 00:00:14;;;;;;;;;1.75;1.75;;;;;21.49;38.89;101052.88;5093510;27;46337;-86
2022/07/28 00:02:39;;;;;;;;;2.00;2.00;;;;;21.32;38.91;101025.34;5075084;27;45925;-86
2022/07/28 00:05:05;;;;;;;;;2.00;2.00;;;;;21.36;38.69;101035.13;5074712;27;45473;-86
2022/07/28 00:07:30;;;;;;;;;1.00;1.00;;;;;21.24;39.12;101014.66;5093433;27;45393;-86
2022/07/28 00:09:56;;;;;;;;;2.00;1.75;;;;;21.26;38.77;101017.31;5093298;27;46488;-86
2022/07/28 00:12:21;;;;;;;;;2.50;1.75;;;;;21.21;39.02;101008.44;5096711;27;45463;-85
2022/07/28 00:14:46;;;;;;;;;1.25;1.25;;;;;21.32;39.13;101028.88;5096921;27;45335;-86
2022/07/28 00:17:12;;;;;;;;;1.75;1.75;;;;;21.28;39.15;101019.09;5096946;27;45408;-86
2022/07/28 00:19:37;;;;;;;;;2.00;1.75;;;;;21.16;39.10;100997.75;5096626;27;45453;-85
2022/07/28 00:22:02;;;;;;;;;1.50;1.50;;;;;21.29;38.98;101006.63;5078340;27;45358;-86
2022/07/28 00:24:28;;;;;;;;;2.00;2.00;;;;;21.35;39.21;101017.31;5096776;27;45398;-86
2022/07/28 00:26:53;;;;;;;;;2.00;2.00;;;;;21.35;39.06;101026.22;5096718;27;45371;-86
2022/07/28 00:29:19;;;;;;;;;2.25;1.25;;;;;21.08;39.29;100975.50;5096873;27;45924;-86
2022/07/28 00:31:44;;;;;;;;;1.75;1.00;;;;;21.26;39.09;101007.50;5096539;27;45267;-86
2022/07/28 00:34:10;;;;;;;;;2.00;2.00;;;;;21.22;39.38;101005.75;5096035;27;45428;-83
2022/07/28 00:36:35;;;;;;;;;2.00;2.00;;;;;21.09;39.53;100975.53;5077853;27;45470;-83
2022/07/28 00:39:01;;;;;;;;;2.00;2.00;;;;;21.21;39.42;101003.09;5095730;27;46262;-83
2022/07/28 00:41:26;;;;;;;;;3.00;3.00;;;;;21.08;39.46;100976.44;5095756;27;45278;-83
2022/07/28 00:43:52;;;;;;;;;2.00;2.00;;;;;21.22;39.57;101000.41;5077509;27;45386;-83
2022/07/28 00:46:20;;;;;;;;;1.25;1.00;;;;;21.25;39.23;100994.16;5095686;27;45356;-84
2022/07/28 00:48:51;;;;;;;;;2.00;2.00;;;;;21.04;39.64;100963.97;5095095;27;46267;-83
2022/07/28 00:51:20;;;;;;;;;2.00;1.50;;;;;21.27;39.68;101008.38;5095700;27;45320;-84
2022/07/28 00:53:46;;;;;;;;;2.00;2.00;;;;;21.27;39.77;100998.59;5077575;27;45326;-83
2022/07/28 00:56:12;;;;;;;;;2.25;2.25;;;;;21.21;39.63;100981.69;5095818;27;45488;-84
2022/07/28 00:58:38;;;;;;;;;2.00;2.00;;;;;21.27;40.04;100990.56;5095630;27;45596;-86
2022/07/28 01:01:09;;;;;;;;;2.00;2.00;;;;;21.28;39.87;100996.78;5077396;27;45573;-85
2022/07/28 01:03:39;;;;;;;;;2.50;2.00;;;;;21.04;39.90;100963.97;5095231;27;45449;-84
2022/07/28 01:06:42;;;;;;;;;2.25;2.00;;;;;21.27;39.96;100995.03;5095546;27;45298;-86
2022/07/28 01:09:45;;;;;;;;;2.00;2.00;;;;;21.26;40.01;100990.59;5077170;27;47316;-83
2022/07/28 01:12:45;;;;;;;;;1.00;1.00;;;;;21.26;40.26;100985.22;5076962;27;46193;-83
2022/07/28 01:15:41;;;;;;;;;2.00;2.00;;;;;21.20;40.16;100974.59;5077117;27;45401;-83
2022/07/28 01:18:18;;;;;;;;;3.00;2.00;;;;;21.09;40.20;100970.19;5069942;27;45535;-84
2022/07/28 01:20:52;;;;;;;;;2.50;2.50;;;;;21.00;40.38;100950.63;5095187;27;45483;-84
2022/07/28 01:23:45;;;;;;;;;2.00;2.00;;;;;21.02;40.51;100959.50;5095101;27;45398;-84
2022/07/28 01:26:47;;;;;;;;;2.00;2.00;;;;;21.00;40.82;100962.22;5095519;27;45601;-84
2022/07/28 01:29:41;;;;;;;;;2.00;2.00;;;;;20.98;40.30;100952.41;5095056;27;45528;-84
2022/07/28 01:32:17;;;;;;;;;1.00;1.00;;;;;21.06;40.51;100958.59;5095345;27;45699;-83
2022/07/28 01:35:13;;;;;;;;;2.00;2.00;;;;;21.15;40.33;100984.41;5094899;27;45480;-84
2022/07/28 01:37:42;;;;;;;;;2.00;1.00;;;;;21.09;40.43;100977.31;5095264;27;45529;-83
2022/07/28 01:40:10;;;;;;;;;2.00;2.00;;;;;20.92;40.23;100934.63;5076694;27;45318;-84
2022/07/28 01:42:45;;;;;;;;;2.75;2.00;;;;;21.07;40.33;100968.41;5076390;27;48581;-84
2022/07/28 01:45:12;;;;;;;;;2.00;2.00;;;;;21.00;40.18;100956.84;5094810;27;45422;-84
2022/07/28 01:47:40;;;;;;;;;2.00;2.00;;;;;21.07;40.70;100979.09;5094421;27;45439;-83
2022/07/28 01:50:09;;;;;;;;;2.00;1.25;;;;;20.99;40.76;100965.78;5094943;27;45446;-83
2022/07/28 01:52:36;;;;;;;;;1.75;1.75;;;;;20.93;40.62;100954.22;5094771;27;47598;-84
2022/07/28 01:55:03;;;;;;;;;1.50;1.50;;;;;20.94;40.67;100959.56;5094871;27;45833;-83
2022/07/28 01:57:31;;;;;;;;;2.00;1.00;;;;;20.78;40.66;100934.69;5095091;27;45300;-83
2022/07/28 01:59:58;;;;;;;;;2.00;2.00;;;;;20.70;40.99;100917.81;5094656;27;45465;-84
2022/07/28 02:02:26;;;;;;;;;2.00;2.00;;;;;20.73;40.66;100916.91;5095106;27;46023;-84
2022/07/28 02:04:56;;;;;;;;;2.75;2.00;;;;;20.77;40.70;100934.69;5076097;27;45867;-83
2022/07/28 02:07:23;;;;;;;;;1.00;1.00;;;;;20.74;40.57;100929.34;5094663;27;45520;-84
2022/07/28 02:09:51;;;;;;;;;2.00;2.00;;;;;20.77;40.79;100940.91;5095050;27;45688;-83
2022/07/28 02:12:17;;;;;;;;;2.00;2.00;;;;;20.60;41.12;100910.72;5076184;27;48134;-84
2022/07/28 02:14:47;;;;;;;;;1.50;1.50;;;;;20.80;40.80;100948.94;5076177;27;45501;-83
2022/07/28 02:17:17;;;;;;;;;1.00;1.00;;;;;20.81;40.88;100949.81;5094659;27;45434;-84
2022/07/28 02:19:44;;;;;;;;;1.50;1.50;;;;;20.65;40.89;100916.94;5094398;27;45284;-83
2022/07/28 02:22:11;;;;;;;;;2.00;2.00;;;;;20.71;40.91;100926.72;5094395;27;45575;-85
2022/07/28 02:24:37;;;;;;;;;2.00;2.00;;;;;20.69;41.12;100924.06;5094436;27;45469;-85
2022/07/28 02:27:08;;;;;;;;;1.00;1.00;;;;;20.64;40.89;100917.84;5094638;27;45386;-83
2022/07/28 02:29:51;;;;;;;;;1.00;1.00;;;;;20.75;41.20;100936.50;5076253;27;45697;-83
2022/07/28 02:32:37;;;;;;;;;2.00;2.00;;;;;20.72;41.83;100925.81;5075773;27;46223;-85
2022/07/28 02:35:10;;;;;;;;;1.00;1.00;;;;;20.71;41.56;100938.28;5072595;27;45906;-86
2022/07/28 02:37:40;;;;;;;;;1.25;1.00;;;;;20.65;41.78;100927.63;5076513;27;45485;-87
2022/07/28 02:40:10;;;;;;;;;1.00;1.00;;;;;20.69;42.02;100934.75;5076457;27;45323;-86
2022/07/28 02:42:39;;;;;;;;;1.00;1.00;;;;;20.64;42.13;100928.53;5094239;27;45431;-87
2022/07/28 02:45:07;;;;;;;;;1.50;1.50;;;;;20.42;42.30;100900.06;5094591;27;45950;-85
2022/07/28 02:47:38;;;;;;;;;1.00;1.00;;;;;20.41;41.87;100901.88;5075668;27;45447;-84
2022/07/28 02:50:05;;;;;;;;;1.50;1.00;;;;;20.42;42.62;100911.63;5094447;27;45592;-86
2022/07/28 02:52:33;;;;;;;;;1.00;1.00;;;;;20.56;42.68;100933.88;5094361;27;45430;-86
2022/07/28 02:55:00;;;;;;;;;2.00;1.00;;;;;20.50;42.65;100938.38;5094100;27;45918;-86
2022/07/28 02:57:27;;;;;;;;;2.00;2.00;;;;;20.42;42.87;100922.31;5094340;27;45432;-86
2022/07/28 02:59:54;;;;;;;;;2.00;1.00;;;;;20.41;43.21;100917.88;5075778;27;45597;-86
2022/07/28 03:02:21;;;;;;;;;2.25;1.50;;;;;20.36;42.62;100925.00;5094195;27;46217;-86
2022/07/28 03:05:06;;;;;;;;;2.00;2.00;;;;;20.09;42.69;100876.13;5075512;27;46022;-85
2022/07/28 03:07:35;;;;;;;;;2.00;2.00;;;;;20.45;42.15;100929.44;5076140;27;45687;-86
2022/07/28 03:10:02;;;;;;;;;1.50;1.00;;;;;20.31;42.53;100903.66;5076090;27;45519;-83
2022/07/28 03:12:27;;;;;;;;;1.50;1.50;;;;;20.24;42.60;100883.19;5093977;27;46304;-86
2022/07/28 03:14:53;;;;;;;;;2.00;2.00;;;;;20.26;42.66;100885.91;5094068;27;45372;-86
2022/07/28 03:17:18;;;;;;;;;0.75;0.75;;;;;20.40;42.89;100920.56;5094120;27;45628;-84
2022/07/28 03:19:44;;;;;;;;;2.00;2.00;;;;;20.28;43.22;100900.09;5075166;27;45493;-84
2022/07/28 03:22:10;;;;;;;;;1.00;1.00;;;;;20.25;43.25;100897.47;5093699;27;45487;-83
2022/07/28 03:24:38;;;;;;;;;2.00;1.00;;;;;20.32;42.61;100910.78;5075504;27;45386;-85
2022/07/28 03:27:30;;;;;;;;;2.00;2.00;;;;;20.41;42.84;100925.88;5075730;27;45599;-83
2022/07/28 03:30:03;;;;;;;;;1.75;1.75;;;;;20.38;43.05;100922.34;5094141;27;45443;-84
2022/07/28 03:32:31;;;;;;;;;1.25;1.25;;;;;20.35;43.30;100915.22;5075358;27;47777;-86
2022/07/28 03:34:57;;;;;;;;;1.75;1.25;;;;;20.12;42.77;100871.69;5093829;27;45936;-85
2022/07/28 03:37:54;;;;;;;;;1.25;1.00;;;;;20.38;43.10;100923.22;5093817;27;45483;-85
2022/07/28 03:40:24;;;;;;;;;2.25;2.25;;;;;20.21;43.25;100890.34;5090231;27;45419;-84
2022/07/28 03:42:50;;;;;;;;;2.00;2.00;;;;;20.24;43.80;100907.22;5093557;27;46146;-86
2022/07/28 03:45:16;;;;;;;;;2.50;2.00;;;;;20.10;43.92;100879.72;5094280;27;45367;-84
2022/07/28 03:47:52;;;;;;;;;2.50;2.50;;;;;20.30;43.37;100925.91;5096721;27;45544;-83
2022/07/28 03:50:21;;;;;;;;;1.75;1.75;;;;;19.98;43.95;100867.28;5078813;27;45487;-84
2022/07/28 03:52:46;;;;;;;;;1.00;1.00;;;;;20.17;43.62;100907.25;5097111;27;46441;-84
2022/07/28 03:55:14;;;;;;;;;2.00;2.00;;;;;20.19;43.99;100916.13;5097158;27;45408;-87
2022/07/28 03:57:39;;;;;;;;;3.00;2.00;;;;;20.03;43.99;100894.81;5078786;27;45342;-84
2022/07/28 04:00:05;;;;;;;;;1.50;1.50;;;;;20.12;44.13;100914.41;5097142;27;45343;-83
2022/07/28 04:02:30;;;;;;;;;1.50;1.50;;;;;20.13;44.13;100913.50;5078137;27;47006;-83
2022/07/28 04:04:56;;;;;;;;;1.00;1.00;;;;;20.06;44.24;100908.19;5096754;27;45271;-84
2022/07/28 04:07:21;;;;;;;;;2.00;2.00;;;;;20.00;44.38;100902.84;5078494;27;45343;-83
2022/07/28 04:09:46;;;;;;;;;2.50;2.50;;;;;20.04;44.40;100912.59;5096967;27;45426;-83
2022/07/28 04:12:12;;;;;;;;;2.00;2.00;;;;;19.94;44.29;100892.16;5078490;27;47977;-83
2022/07/28 04:14:37;;;;;;;;;3.75;3.00;;;;;19.69;44.25;100851.31;5096955;27;45565;-86
2022/07/28 04:17:02;;;;;;;;;2.00;2.00;;;;;20.07;44.36;100912.63;5096940;27;45412;-83
2022/07/28 04:19:28;;;;;;;;;1.00;1.00;;;;;20.09;44.64;100915.28;5095912;27;45546;-84
2022/07/28 04:21:53;;;;;;;;;2.00;2.00;;;;;20.07;44.74;100891.28;5097132;27;45512;-86
2022/07/28 04:24:18;;;;;;;;;4.00;3.00;;;;;20.18;44.73;100914.38;5096847;27;45417;-85
2022/07/28 04:26:44;;;;;;;;;3.00;2.00;;;;;20.20;43.88;100909.94;5096624;27;45449;-83
2022/07/28 04:29:09;;;;;;;;;4.00;3.00;;;;;20.10;44.05;100885.06;5078487;27;45625;-83
2022/07/28 04:31:34;;;;;;;;;2.25;2.25;;;;;20.07;43.98;100877.94;5077793;27;46984;-84
2022/07/28 04:34:00;;;;;;;;;3.00;3.00;;;;;20.13;43.83;100887.69;5095589;27;45349;-83
2022/07/28 04:36:25;;;;;;;;;2.75;2.50;;;;;20.09;44.37;100880.59;5096379;27;45841;-83
2022/07/28 04:38:51;;;;;;;;;5.00;4.00;;;;;20.20;44.65;100893.94;5077665;27;45688;-83
2022/07/28 04:41:16;;;;;;;;;4.75;4.75;;;;;20.13;44.30;100885.03;5096017;27;45715;-83
2022/07/28 04:43:42;;;;;;;;;4.00;4.00;;;;;20.01;44.22;100872.59;5096123;27;45405;-83
2022/07/28 04:46:07;;;;;;;;;3.75;3.75;;;;;19.97;44.34;100862.81;5095962;27;45518;-84
2022/07/28 04:48:32;;;;;;;;;4.25;3.50;;;;;20.14;43.92;100897.47;5095670;27;45489;-83
2022/07/28 04:50:58;;;;;;;;;4.00;4.00;;;;;20.12;43.61;100890.38;5077057;27;46930;-84
2022/07/28 04:53:23;;;;;;;;;3.25;3.25;;;;;20.08;44.04;100871.69;5095795;27;45287;-83
2022/07/28 04:55:50;;;;;;;;;4.00;2.50;;;;;20.22;44.63;100895.69;5095851;27;45298;-83
2022/07/28 04:58:17;;;;;;;;;4.50;4.00;;;;;20.18;44.86;100895.69;5095581;27;45232;-83
2022/07/28 05:00:43;;;;;;;;;4.00;4.00;;;;;20.14;44.35;100886.78;5095885;27;45604;-84
2022/07/28 05:03:08;;;;;;;;;4.00;3.00;;;;;19.92;44.38;100848.63;5095585;27;45921;-85
2022/07/28 05:05:33;;;;;;;;;3.25;3.25;;;;;20.03;44.71;100862.81;5096367;27;45365;-85
2022/07/28 05:07:59;;;;;;;;;4.00;4.00;;;;;20.25;45.12;100900.13;5096358;27;45488;-85
2022/07/28 05:10:24;;;;;;;;;4.25;4.00;;;;;20.03;44.50;100862.81;5096164;27;45478;-87
2022/07/28 05:12:51;;;;;;;;;3.00;3.00;;;;;20.21;44.79;100893.91;5077555;27;45719;-85
2022/07/28 05:15:16;;;;;;;;;4.00;3.50;;;;;20.02;44.70;100862.81;5096040;27;45458;-85
2022/07/28 05:17:42;;;;;;;;;3.25;3.25;;;;;20.25;44.21;100902.81;5095455;27;45326;-86
2022/07/28 05:20:07;;;;;;;;;4.25;3.50;;;;;20.26;44.12;100896.56;5077762;27;47910;-85
2022/07/28 05:22:44;;;;;;;;;4.00;4.00;;;;;20.38;43.84;100920.53;5095634;27;45602;-85
2022/07/28 05:25:17;;;;;;;;;2.25;2.00;;;;;20.34;44.14;100906.34;5095901;27;45321;-85
2022/07/28 05:27:46;;;;;;;;;4.00;3.50;;;;;20.13;43.95;100855.66;5095639;27;45466;-86
2022/07/28 05:30:13;;;;;;;;;3.25;3.25;;;;;20.40;43.47;100904.53;5095460;27;45729;-86
2022/07/28 05:32:39;;;;;;;;;4.00;3.75;;;;;20.33;43.21;100883.19;5095320;27;46020;-86
2022/07/28 05:35:05;;;;;;;;;4.00;4.00;;;;;20.40;43.87;100888.53;5095752;27;45701;-86
2022/07/28 05:37:34;;;;;;;;;3.25;3.25;;;;;20.35;43.38;100883.19;5096197;27;45542;-85
2022/07/28 05:40:01;;;;;;;;;4.00;4.00;;;;;20.58;43.44;100910.72;5095544;27;46423;-84
2022/07/28 05:42:27;;;;;;;;;4.25;4.25;;;;;20.49;43.64;100889.41;5095743;27;45482;-85
2022/07/28 05:44:53;;;;;;;;;4.75;4.75;;;;;20.66;43.70;100918.72;5077161;27;45512;-85
2022/07/28 05:47:18;;;;;;;;;4.25;4.00;;;;;20.66;44.56;100904.47;5095045;27;45346;-85
2022/07/28 05:49:44;;;;;;;;;4.25;4.25;;;;;20.60;43.98;100892.03;5094842;27;45835;-86
2022/07/28 05:52:09;;;;;;;;;5.00;5.00;;;;;20.53;43.67;100875.13;5095436;27;45604;-85
2022/07/28 05:54:34;;;;;;;;;4.50;4.50;;;;;20.61;43.53;100875.13;5095390;27;45625;-85
2022/07/28 05:57:00;;;;;;;;;4.00;4.00;;;;;20.67;44.29;100884.88;5095452;27;45353;-83
2022/07/28 05:59:25;;;;;;;;;5.00;5.00;;;;;20.63;43.88;100864.41;5076789;27;47416;-85
2022/07/28 06:01:50;;;;;;;;;5.00;4.50;;;;;20.60;43.51;100866.22;5095255;27;45274;-84
2022/07/28 06:04:16;;;;;;;;;6.00;6.00;;;;;20.85;43.89;100903.50;5094486;27;46857;-85
2022/07/28 06:06:41;;;;;;;;;5.00;4.75;;;;;20.59;43.96;100858.19;5095449;27;45664;-84
2022/07/28 06:09:06;;;;;;;;;5.00;5.00;;;;;20.67;43.72;100872.41;5075214;27;47166;-83
2022/07/28 06:11:32;;;;;;;;;6.00;4.75;;;;;20.79;43.87;100895.53;5076079;27;45435;-84
2022/07/28 06:13:57;;;;;;;;;5.75;5.75;;;;;20.89;43.54;100904.38;5095066;27;45586;-86
2022/07/28 06:16:22;;;;;;;;;5.67;4.67;;;;;20.89;44.50;100902.59;5094800;27;45263;-83
2022/07/28 06:18:49;;;;;;;;;9.00;6.25;;;;;20.99;43.98;100914.13;5075873;27;47776;-84
2022/07/28 06:21:14;;;;;;;;;5.25;5.25;;;;;20.68;44.27;100854.59;5094904;27;45787;-85
2022/07/28 06:23:39;;;;;;;;;5.50;5.50;;;;;20.95;44.64;100905.22;5076371;27;45516;-85
2022/07/28 06:26:05;;;;;;;;;6.00;5.50;;;;;20.84;44.27;100883.03;5076445;27;45517;-86
2022/07/28 06:28:31;;;;;;;;;6.67;6.67;;;;;20.93;44.00;100898.97;5094803;27;49207;-86
2022/07/28 06:30:57;;;;;;;;;5.00;5.00;;;;;21.05;43.32;100912.28;5076184;27;45283;-85
2022/07/28 06:33:22;;;;;;;;;5.25;5.00;;;;;21.04;43.58;100905.19;5094296;27;45467;-86
2022/07/28 06:35:47;;;;;;;;;5.00;5.00;;;;;20.93;43.63;100880.28;5094691;27;45406;-85
2022/07/28 06:38:13;;;;;;;;;5.25;5.00;;;;;21.01;43.41;100866.88;5094385;27;45429;-86
2022/07/28 06:40:38;;;;;;;;;5.75;5.00;;;;;21.12;43.30;100879.28;5075815;27;45429;-86
2022/07/28 06:43:04;;;;;;;;;7.00;6.00;;;;;21.34;43.05;100908.59;5076196;27;45829;-84
2022/07/28 06:45:29;;;;;;;;;7.25;7.25;;;;;21.10;43.22;100858.81;5094363;27;45625;-84
2022/07/28 06:47:55;;;;;;;;;6.00;6.00;;;;;21.27;43.84;100880.94;5075480;27;46916;-84
2022/07/28 06:50:20;;;;;;;;;4.75;4.75;;;;;21.34;42.95;100872.03;5075492;27;45524;-83
2022/07/28 06:52:46;;;;;;;;;5.00;5.00;;;;;21.49;42.64;100892.44;5094228;27;45357;-86
2022/07/28 06:55:14;;;;;;;;;5.25;5.00;;;;;21.66;43.18;100907.44;5094280;27;45609;-84
2022/07/28 06:57:40;;;;;;;;;6.50;6.00;;;;;21.44;42.77;100869.28;5093730;27;46341;-85
2022/07/28 07:00:11;;;;;;;;;4.50;4.50;;;;;21.40;42.45;100851.50;5094061;27;45469;-85
2022/07/28 07:02:39;;;;;;;;;5.75;5.75;;;;;21.55;42.43;100873.66;5093636;27;45425;-84
2022/07/28 07:05:06;;;;;;;;;6.25;6.00;;;;;21.64;41.81;100883.38;5075799;27;45490;-84
2022/07/28 07:07:31;;;;;;;;;5.00;5.00;;;;;21.72;42.52;100888.66;5093705;27;45398;-85
2022/07/28 07:09:57;;;;;;;;;5.00;5.00;;;;;21.87;42.72;100909.91;5093998;27;45456;-83
2022/07/28 07:12:22;;;;;;;;;7.75;7.00;;;;;21.82;41.99;100885.00;5093884;27;45383;-86
2022/07/28 07:14:47;;;;;;;;;6.00;6.00;;;;;22.02;42.05;100915.16;5094013;27;45319;-85
2022/07/28 07:17:13;;;;;;;;;5.50;5.50;;;;;22.07;41.81;100907.09;5093381;27;45425;-84
2022/07/28 07:19:38;;;;;;;;;7.00;5.75;;;;;22.04;41.91;100886.56;5094820;27;45570;-85
2022/07/28 07:22:03;;;;;;;;;6.75;6.75;;;;;22.15;41.52;100898.06;5097592;27;45398;-86
2022/07/28 07:24:29;;;;;;;;;7.50;7.25;;;;;22.22;41.57;100906.94;5079343;27;45477;-86
2022/07/28 07:26:54;;;;;;;;;6.75;5.50;;;;;22.10;40.82;100880.25;5097733;27;46665;-86
2022/07/28 07:29:21;;;;;;;;;7.25;7.25;;;;;22.14;41.11;100899.00;5079296;27;45286;-86
2022/07/28 07:31:47;;;;;;;;;5.50;5.50;;;;;22.27;41.62;100912.25;5097788;27;45485;-86
2022/07/28 07:34:14;;;;;;;;;8.25;7.00;;;;;22.32;41.43;100910.41;5097201;27;45399;-86
2022/07/28 07:36:40;;;;;;;;;6.50;5.00;;;;;22.22;41.75;100881.97;5097603;27;46380;-86
2022/07/28 07:39:05;;;;;;;;;6.00;5.00;;;;;22.20;41.81;100879.28;5097980;27;45661;-86
2022/07/28 07:41:30;;;;;;;;;6.50;6.25;;;;;22.28;41.46;100880.09;5097616;27;45544;-86
2022/07/28 07:43:56;;;;;;;;;7.25;6.50;;;;;22.35;41.09;100889.81;5097574;27;45210;-86
2022/07/28 07:46:21;;;;;;;;;7.00;7.00;;;;;22.42;40.95;100893.34;5096970;27;46567;-86
2022/07/28 07:48:46;;;;;;;;;6.25;6.00;;;;;22.44;40.72;100896.00;5096791;27;45485;-84
2022/07/28 07:51:12;;;;;;;;;7.00;7.00;;;;;22.58;40.36;100911.00;5097379;27;45359;-86
2022/07/28 07:53:37;;;;;;;;;6.00;6.00;;;;;22.59;40.39;100907.41;5078695;27;45656;-86
2022/07/28 07:56:02;;;;;;;;;7.00;6.00;;;;;22.51;40.44;100877.16;5096973;27;45520;-84
2022/07/28 07:58:28;;;;;;;;;5.25;5.25;;;;;22.51;39.89;100881.59;5097217;27;45561;-86
2022/07/28 08:00:53;;;;;;;;;6.25;6.25;;;;;22.54;41.07;100892.28;5097445;27;45483;-86
2022/07/28 08:03:19;;;;;;;;;6.00;6.00;;;;;22.54;40.54;100884.25;5096707;27;45452;-86
2022/07/28 08:05:45;;;;;;;;;5.50;5.50;;;;;22.41;40.89;100859.41;5096829;27;45481;-86
2022/07/28 08:08:10;;;;;;;;;5.50;5.50;;;;;22.63;40.68;100886.81;5096894;27;45564;-87
2022/07/28 08:10:37;;;;;;;;;6.25;6.25;;;;;22.78;40.20;100909.84;5097058;27;45445;-85
2022/07/28 08:13:04;;;;;;;;;5.75;5.50;;;;;22.78;40.40;100916.09;5097035;27;45517;-85
2022/07/28 08:15:29;;;;;;;;;5.25;5.25;;;;;22.71;40.56;100894.75;5096882;27;45601;-84
2022/07/28 08:17:54;;;;;;;;;7.50;6.75;;;;;22.66;40.32;100881.44;5096017;27;45362;-82
2022/07/28 08:20:20;;;;;;;;;7.25;6.50;;;;;22.76;40.38;100890.22;5078329;27;45285;-86
2022/07/28 08:22:50;;;;;;;;;5.00;5.00;;;;;22.73;40.44;100883.13;5097015;27;45681;-83
2022/07/28 08:25:16;;;;;;;;;6.00;6.00;;;;;22.88;40.68;100906.16;5077646;27;47366;-83
2022/07/28 08:27:41;;;;;;;;;7.75;7.25;;;;;22.68;40.42;100866.22;5096580;27;45466;-83
2022/07/28 08:30:08;;;;;;;;;6.00;6.00;;;;;22.70;39.91;100869.75;5096802;27;45567;-82
2022/07/28 08:32:33;;;;;;;;;7.25;7.00;;;;;22.90;40.08;100897.19;5096029;27;45548;-84
2022/07/28 08:34:58;;;;;;;;;6.00;6.00;;;;;22.95;40.49;100898.94;5095947;27;45372;-85
2022/07/28 08:37:24;;;;;;;;;7.75;7.00;;;;;22.78;40.10;100858.94;5078015;27;45520;-83
2022/07/28 08:39:49;;;;;;;;;6.00;6.00;;;;;22.89;40.18;100873.09;5078294;27;45765;-86
2022/07/28 08:42:19;;;;;;;;;8.00;7.00;;;;;23.09;40.31;100903.19;5096096;27;45358;-83
2022/07/28 08:44:57;;;;;;;;;7.00;6.00;;;;;23.06;40.27;100895.22;5095835;27;46416;-83
2022/07/28 08:47:25;;;;;;;;;6.00;6.00;;;;;23.04;40.44;100880.91;5095844;27;45524;-83
2022/07/28 08:49:53;;;;;;;;;7.00;7.00;;;;;23.04;39.99;100872.88;5077021;27;45423;-83
2022/07/28 08:52:21;;;;;;;;;5.50;5.00;;;;;23.27;40.41;100895.81;5077504;27;45579;-83
2022/07/28 08:54:48;;;;;;;;;7.50;7.00;;;;;23.13;40.51;100863.81;5095746;27;46538;-83
2022/07/28 08:57:24;;;;;;;;;7.00;6.25;;;;;23.11;39.75;100847.78;5077482;27;45960;-84
2022/07/28 08:59:50;;;;;;;;;7.00;6.25;;;;;23.36;39.75;100890.28;5096175;27;45587;-84
2022/07/28 09:02:16;;;;;;;;;6.00;6.00;;;;;23.44;39.57;100888.34;5095637;27;45286;-83
2022/07/28 09:04:43;;;;;;;;;6.25;5.75;;;;;23.48;39.87;100895.44;5095052;27;46239;-84
2022/07/28 09:07:10;;;;;;;;;8.00;7.00;;;;;23.48;39.60;100884.72;5095563;27;45430;-83
2022/07/28 09:09:36;;;;;;;;;5.75;5.75;;;;;23.33;39.60;100856.34;5077470;27;45585;-83
2022/07/28 09:12:06;;;;;;;;;6.00;6.00;;;;;23.50;39.14;100861.44;5095924;27;45372;-84
2022/07/28 09:14:32;;;;;;;;;5.25;4.50;;;;;23.54;38.88;100857.78;5077291;27;47187;-83
2022/07/28 09:17:01;;;;;;;;;6.25;6.00;;;;;23.70;38.81;100869.19;5095610;27;45444;-84
2022/07/28 09:19:29;;;;;;;;;6.75;6.00;;;;;23.90;38.98;100888.50;5095403;27;45533;-85
2022/07/28 09:21:55;;;;;;;;;5.50;5.50;;;;;23.92;38.66;100869.69;5095480;27;45308;-84
2022/07/28 09:24:41;;;;;;;;;5.50;5.50;;;;;24.19;38.32;100889.78;5095042;27;45531;-85
2022/07/28 09:27:08;;;;;;;;;6.00;6.00;;;;;24.11;38.24;100870.22;5095629;27;45228;-85
2022/07/28 09:29:36;;;;;;;;;6.00;6.00;;;;;24.24;38.07;100874.47;5076706;27;45550;-83
2022/07/28 09:32:02;;;;;;;;;5.00;4.25;;;;;24.49;37.78;100899.06;5095560;27;45615;-84
2022/07/28 09:34:37;;;;;;;;;7.00;6.75;;;;;24.43;37.48;100872.28;5076422;27;47610;-84
2022/07/28 09:37:02;;;;;;;;;3.25;3.25;;;;;24.53;37.29;100873.91;5095297;27;45409;-85
2022/07/28 09:39:29;;;;;;;;;6.00;6.00;;;;;24.57;36.93;100869.31;5095306;27;45387;-83
2022/07/28 09:41:55;;;;;;;;;6.50;6.00;;;;;24.54;36.95;100870.28;5094952;27;45489;-86
2022/07/28 09:44:23;;;;;;;;;6.25;6.00;;;;;24.64;37.52;100879.94;5076816;27;47394;-85
2022/07/28 09:46:49;;;;;;;;;6.00;6.00;;;;;24.66;36.86;100878.09;5094881;27;45373;-86
2022/07/28 09:49:15;;;;;;;;;4.75;4.75;;;;;24.65;36.99;100868.25;5076600;27;45510;-84
2022/07/28 09:51:40;;;;;;;;;4.50;4.50;;;;;24.69;37.19;100851.16;5076668;27;45500;-86
2022/07/28 09:54:14;;;;;;;;;6.00;5.50;;;;;24.89;36.83;100845.31;5076760;27;46891;-86
2022/07/28 09:56:43;;;;;;;;;4.50;4.00;;;;;25.19;36.60;100859.00;5095003;27;45932;-84
2022/07/28 09:59:10;;;;;;;;;4.50;4.25;;;;;25.37;36.05;100854.97;5095028;27;45582;-85
2022/07/28 10:01:53;;;;;;;;;4.50;3.00;;;;;25.36;35.51;100837.94;5076641;27;45401;-86
2022/07/28 10:04:31;;;;;;;;;4.25;3.25;;;;;25.69;35.31;100871.19;5094475;27;46096;-86
2022/07/28 10:07:06;;;;;;;;;6.25;5.25;;;;;25.76;35.09;100876.47;5076766;27;46000;-85
2022/07/28 10:09:32;;;;;;;;;5.00;4.75;;;;;25.56;35.44;100825.78;5076645;27;45311;-85
2022/07/28 10:12:20;;;;;;;;;3.25;3.25;;;;;25.82;34.91;100863.75;5095100;27;45561;-85
2022/07/28 10:14:50;;;;;;;;;4.75;4.75;;;;;25.89;34.93;100859.06;5094914;27;46307;-85
2022/07/28 10:17:28;;;;;;;;;2.00;2.00;;;;;25.93;34.54;100858.06;5076427;27;45304;-85
2022/07/28 10:20:04;;;;;;;;;3.50;3.50;;;;;25.83;34.97;100835.88;5076088;27;45475;-86
2022/07/28 10:22:32;;;;;;;;;3.00;3.00;;;;;25.84;34.53;100840.31;5094890;27;45353;-85
2022/07/28 10:25:05;;;;;;;;;3.75;3.75;;;;;25.71;34.30;100810.16;5093920;27;46602;-86
2022/07/28 10:27:31;;;;;;;;;7.00;5.50;;;;;25.97;34.33;100854.38;5075732;27;45431;-83
2022/07/28 10:29:59;;;;;;;;;4.75;4.50;;;;;25.92;34.55;100827.56;5094608;27;45291;-85
2022/07/28 10:32:28;;;;;;;;;5.00;5.00;;;;;25.99;34.55;100841.72;5094721;27;45535;-86
2022/07/28 10:35:03;;;;;;;;;4.00;4.00;;;;;25.92;34.06;100813.22;5075708;27;48387;-84
2022/07/28 10:37:30;;;;;;;;;4.00;3.75;;;;;26.19;34.20;100858.22;5094342;27;45957;-85
2022/07/28 10:40:02;;;;;;;;;4.50;4.50;;;;;26.28;33.96;100856.19;5076104;27;45244;-85
2022/07/28 10:42:28;;;;;;;;;3.25;3.00;;;;;26.27;34.09;100835.56;5076019;27;45995;-85
2022/07/28 10:44:54;;;;;;;;;4.25;4.25;;;;;26.42;34.17;100848.59;5093802;27;47841;-85
2022/07/28 10:47:20;;;;;;;;;4.00;4.00;;;;;26.43;33.78;100839.63;5093997;27;45558;-84
2022/07/28 10:49:47;;;;;;;;;4.25;4.00;;;;;26.55;33.39;100858.13;5093761;27;45313;-84
2022/07/28 10:52:16;;;;;;;;;4.00;4.00;;;;;26.32;33.13;100821.03;5094114;27;45386;-84
2022/07/28 10:54:49;;;;;;;;;4.00;4.00;;;;;26.39;33.75;100825.31;5075105;27;48337;-85
2022/07/28 10:57:15;;;;;;;;;5.00;4.50;;;;;26.38;33.72;100833.44;5075971;27;45358;-84
2022/07/28 11:00:00;;;;;;;;;3.75;3.00;;;;;26.40;33.39;100848.66;5076114;27;45635;-84
2022/07/28 11:02:51;;;;;;;;;4.50;4.50;;;;;26.32;33.38;100842.59;5094288;27;45271;-86
2022/07/28 11:05:28;;;;;;;;;3.75;3.00;;;;;26.29;33.96;100852.56;5093395;27;45596;-85
2022/07/28 11:07:55;;;;;;;;;3.00;3.00;;;;;26.20;33.36;100835.72;5094296;27;45881;-84
2022/07/28 11:10:21;;;;;;;;;4.75;3.50;;;;;26.15;33.26;100839.47;5094027;27;45559;-84
2022/07/28 11:12:48;;;;;;;;;4.50;3.50;;;;;26.06;33.11;100820.88;5094134;27;45298;-84
2022/07/28 11:15:31;;;;;;;;;5.00;4.00;;;;;25.98;33.47;100811.22;5093945;27;46096;-85
2022/07/28 11:18:09;;;;;;;;;3.50;3.50;;;;;26.14;33.59;100830.50;5093887;27;45854;-85
2022/07/28 11:20:50;;;;;;;;;4.00;3.00;;;;;26.33;33.71;100841.66;5093701;27;45466;-84
2022/07/28 11:23:39;;;;;;;;;4.50;4.50;;;;;26.42;33.23;100843.22;5075447;27;45332;-86
2022/07/28 11:26:22;;;;;;;;;3.50;3.50;;;;;26.47;32.75;100841.28;5075396;27;48177;-86
2022/07/28 11:29:02;;;;;;;;;3.00;3.00;;;;;26.55;33.14;100841.03;5075231;27;46000;-86
2022/07/28 11:31:42;;;;;;;;;3.75;3.00;;;;;26.67;32.77;100836.19;5094186;27;45502;-86